Time;durP1;ratioP1;P1;durP2;ratioP2;P2;SDS_P1;SDS_P2;PMS_P1;PMS_P2;Temp;Humidity;BMP_temperature;BMP_pressure;BME280_temperature;BME280_humidity;BME280_pressure;Samples;Min_cycle;Max_cycle;Signal;HPM_P1;HPM_P2
2022/04/29 18:08:06;;;;;;;;;;;10.90;82.00;;;;;;5126440;27;20451;-55
2022/04/29 18:10:34;;;;;;;5.03;3.40;;;10.90;82.00;;;;;;5112377;28;20006;-51
2022/04/29 18:13:01;;;;;;;4.85;3.10;;;10.90;79.00;;;;;;5090110;28;20391;-48
2022/04/29 18:15:28;;;;;;;5.80;3.35;;;10.90;78.80;;;;;;5099654;28;20395;-46
2022/04/29 18:17:54;;;;;;;5.15;3.47;;;10.90;78.10;;;;;;5097823;28;20075;-46
2022/04/29 18:20:21;;;;;;;5.15;3.20;;;10.90;78.50;;;;;;5099477;28;20040;-50
2022/04/29 18:22:52;;;;;;;3.90;2.97;;;11.00;77.50;;;;;;5099021;28;20036;-49
2022/04/29 18:25:19;;;;;;;4.82;3.08;;;11.10;78.40;;;;;;5090417;28;20384;-50
2022/04/29 18:27:45;;;;;;;6.45;3.28;;;11.20;77.70;;;;;;5097102;28;20036;-49
2022/04/29 18:30:12;;;;;;;9.38;3.90;;;11.20;77.60;;;;;;5095497;28;20098;-48
2022/04/29 18:32:39;;;;;;;8.25;3.47;;;11.20;77.20;;;;;;5097885;28;20123;-47
2022/04/29 18:35:06;;;;;;;6.40;3.63;;;11.20;77.80;;;;;;5108190;28;20047;-51
2022/04/29 18:37:32;;;;;;;4.93;3.13;;;11.20;77.00;;;;;;5110066;28;20533;-49
2022/04/29 18:39:59;;;;;;;7.53;3.20;;;11.10;77.00;;;;;;5093829;28;20052;-54
2022/04/29 18:42:26;;;;;;;6.97;3.40;;;11.10;77.50;;;;;;5100813;28;20027;-53
2022/04/29 18:44:53;;;;;;;6.35;3.42;;;10.90;78.20;;;;;;5106368;28;20070;-51
2022/04/29 18:47:20;;;;;;;4.75;3.15;;;11.00;79.00;;;;;;5090342;28;20036;-50
2022/04/29 18:49:47;;;;;;;8.93;3.85;;;11.00;78.20;;;;;;5094062;28;20040;-50
2022/04/29 18:52:13;;;;;;;5.53;3.65;;;10.90;78.60;;;;;;5099191;28;20036;-48
2022/04/29 18:54:41;;;;;;;6.55;4.00;;;10.80;79.60;;;;;;5095036;28;20089;-51
2022/04/29 18:57:08;;;;;;;6.88;3.90;;;10.90;80.50;;;;;;5096846;28;20491;-49
2022/04/29 18:59:35;;;;;;;5.90;4.05;;;10.90;81.10;;;;;;5099505;28;20048;-49
2022/04/29 19:02:03;;;;;;;8.70;3.50;;;10.90;81.50;;;;;;5103867;28;20036;-50
2022/04/29 19:04:34;;;;;;;7.93;4.38;;;10.90;81.60;;;;;;5090322;28;20040;-48
2022/04/29 19:07:00;;;;;;;10.27;4.10;;;10.80;82.00;;;;;;5099500;28;20041;-53
2022/04/29 19:09:28;;;;;;;8.68;4.03;;;10.70;82.30;;;;;;5115354;27;20047;-47
2022/04/29 19:11:57;;;;;;;5.35;3.75;;;10.70;82.50;;;;;;5096155;28;20070;-49
2022/04/29 19:14:24;;;;;;;4.93;3.67;;;10.70;80.20;;;;;;5089858;28;20028;-51
2022/04/29 19:16:51;;;;;;;5.68;3.60;;;10.70;79.60;;;;;;5095959;28;20487;-51
2022/04/29 19:19:18;;;;;;;4.07;3.10;;;10.70;79.50;;;;;;5092233;28;20040;-50
2022/04/29 19:21:45;;;;;;;6.50;3.28;;;10.70;78.20;;;;;;5077039;28;20090;-51
2022/04/29 19:24:12;;;;;;;6.25;3.33;;;10.70;78.60;;;;;;5079318;28;20047;-51
2022/04/29 19:26:41;;;;;;;8.35;3.50;;;10.70;78.00;;;;;;5083843;28;20044;-50
2022/04/29 19:29:09;;;;;;;6.82;3.42;;;10.60;78.40;;;;;;5074644;28;20442;-49
2022/04/29 19:31:36;;;;;;;6.35;4.07;;;10.60;78.20;;;;;;5081299;28;20067;-50
2022/04/29 19:34:03;;;;;;;5.22;3.30;;;10.60;78.30;;;;;;5085073;28;20040;-47
2022/04/29 19:36:30;;;;;;;5.60;3.28;;;10.60;78.40;;;;;;5095286;28;20487;-52
2022/04/29 19:38:59;;;;;;;6.63;3.42;;;10.60;78.70;;;;;;5089027;28;20504;-48
2022/04/29 19:41:25;;;;;;;6.88;4.30;;;10.50;78.80;;;;;;5074800;28;20344;-50
2022/04/29 19:43:53;;;;;;;6.65;3.83;;;10.60;79.60;;;;;;5086093;28;20122;-47
2022/04/29 19:46:20;;;;;;;8.23;3.70;;;10.60;79.60;;;;;;5078662;28;20052;-51
2022/04/29 19:48:47;;;;;;;6.70;3.85;;;10.60;80.00;;;;;;5075934;28;20037;-56
2022/04/29 19:51:13;;;;;;;11.40;4.15;;;10.60;80.00;;;;;;5076876;28;20041;-53
2022/04/29 19:53:40;;;;;;;9.57;4.20;;;10.50;79.90;;;;;;5074646;28;20043;-51
2022/04/29 19:56:07;;;;;;;9.70;4.75;;;10.50;80.50;;;;;;5092107;28;20040;-52
2022/04/29 20:04:06;;;;;;;;;;;10.40;80.10;;;;;;5075888;28;20063;-50
2022/04/29 20:06:33;;;;;;;7.03;4.05;;;10.40;80.20;;;;;;5075036;28;19920;-50
2022/04/29 20:09:00;;;;;;;5.82;3.88;;;10.40;80.80;;;;;;5089855;28;20097;-50
2022/04/29 20:11:26;;;;;;;6.55;3.78;;;10.40;80.90;;;;;;5088332;28;20071;-47
2022/04/29 20:13:55;;;;;;;5.90;4.22;;;10.50;81.70;;;;;;5082378;28;20044;-49
2022/04/29 20:16:22;;;;;;;6.32;4.20;;;10.40;81.90;;;;;;5092288;28;20048;-48
2022/04/29 20:18:49;;;;;;;7.75;4.70;;;10.40;82.40;;;;;;5093308;28;20507;-46
2022/04/29 20:21:16;;;;;;;6.55;4.43;;;10.40;82.90;;;;;;5094659;28;20085;-49
2022/04/29 20:23:43;;;;;;;9.48;4.07;;;10.40;83.20;;;;;;5093552;28;20044;-50
2022/04/29 20:26:11;;;;;;;8.10;4.30;;;10.30;82.60;;;;;;5094778;28;20040;-47
2022/04/29 20:28:38;;;;;;;8.50;4.07;;;10.20;82.90;;;;;;5081201;28;20036;-50
2022/04/29 20:31:04;;;;;;;9.43;4.65;;;10.20;82.80;;;;;;5073877;28;20535;-51
2022/04/29 20:33:32;;;;;;;7.57;4.55;;;10.20;83.20;;;;;;5082622;28;20047;-51
2022/04/29 20:36:00;;;;;;;7.45;4.55;;;10.20;83.00;;;;;;5094205;28;20050;-50
2022/04/29 20:38:28;;;;;;;8.25;4.60;;;10.20;83.40;;;;;;5086085;28;20048;-47
2022/04/29 20:44:00;;;;;;;7.03;4.18;;;10.10;84.00;;;;;;5096092;28;20049;-50
2022/04/29 20:46:27;;;;;;;7.07;4.15;;;10.10;84.20;;;;;;5091635;28;20040;-48
2022/04/29 20:48:54;;;;;;;7.15;4.18;;;10.10;84.00;;;;;;5094099;28;20042;-49
2022/04/29 20:51:24;;;;;;;7.38;3.88;;;10.00;83.40;;;;;;5083101;28;20048;-50
2022/04/29 20:53:51;;;;;;;7.10;4.00;;;9.90;83.40;;;;;;5074457;28;20079;-52
2022/04/29 20:56:18;;;;;;;6.78;4.60;;;9.90;83.90;;;;;;5089064;28;20078;-53
2022/04/29 20:58:44;;;;;;;7.55;4.40;;;9.80;83.40;;;;;;5082105;28;20044;-48
2022/04/29 21:01:11;;;;;;;8.95;5.40;;;9.80;83.20;;;;;;5085254;28;20044;-52
2022/04/29 21:03:39;;;;;;;12.15;6.28;;;9.70;82.60;;;;;;5079336;28;20490;-45
2022/04/29 21:06:05;;;;;;;7.07;4.70;;;9.70;82.70;;;;;;5077856;28;20502;-49
2022/04/29 21:08:33;;;;;;;8.13;5.10;;;9.60;82.00;;;;;;5080551;28;20109;-47
2022/04/29 21:10:59;;;;;;;9.55;5.15;;;9.60;82.50;;;;;;5081022;28;20066;-50
2022/04/29 21:13:27;;;;;;;6.65;4.75;;;9.50;81.80;;;;;;5072612;28;20135;-47
2022/04/29 21:15:54;;;;;;;6.43;4.97;;;9.50;81.80;;;;;;5086170;28;20075;-53
2022/04/29 21:18:21;;;;;;;6.30;4.38;;;9.50;82.00;;;;;;5072777;28;20048;-52
2022/04/29 21:20:49;;;;;;;7.38;4.20;;;9.50;82.00;;;;;;5074402;28;20510;-51
2022/04/29 21:23:16;;;;;;;6.97;4.18;;;9.50;82.50;;;;;;5072815;28;20108;-47
2022/04/29 21:25:43;;;;;;;8.00;4.30;;;9.60;82.10;;;;;;5080192;28;20548;-51
2022/04/29 21:28:11;;;;;;;7.72;4.57;;;9.60;82.10;;;;;;5072939;28;20463;-51
2022/04/29 21:33:24;;;;;;;8.18;3.83;;;9.60;82.40;;;;;;5082960;28;20046;-52
2022/04/29 21:35:51;;;;;;;6.82;4.10;;;9.60;82.50;;;;;;5072617;28;20045;-53
2022/04/29 21:38:17;;;;;;;5.60;4.00;;;9.60;82.80;;;;;;5076387;28;20052;-47
2022/04/29 21:40:44;;;;;;;5.63;3.95;;;9.60;82.60;;;;;;5080593;28;20479;-51
2022/04/29 21:43:11;;;;;;;10.43;4.68;;;9.60;83.20;;;;;;5085423;28;20039;-51
2022/04/29 21:45:39;;;;;;;7.35;3.58;;;9.60;83.40;;;;;;5082804;28;20086;-48
2022/04/29 21:48:09;;;;;;;12.75;4.25;;;9.60;83.60;;;;;;5077088;28;20037;-48
2022/04/29 21:50:36;;;;;;;7.38;4.35;;;9.60;84.00;;;;;;5092216;28;20047;-48
2022/04/29 21:53:03;;;;;;;10.25;4.40;;;9.60;84.70;;;;;;5078136;28;20443;-47
2022/04/29 21:55:30;;;;;;;6.50;4.05;;;9.60;84.90;;;;;;5086299;28;20036;-51
2022/04/29 21:57:56;;;;;;;6.57;4.18;;;9.60;85.40;;;;;;5085133;28;20556;-46
2022/04/29 22:00:23;;;;;;;5.88;3.83;;;9.50;85.90;;;;;;5088542;28;20036;-48
2022/04/29 22:02:50;;;;;;;8.65;3.92;;;9.50;86.10;;;;;;5079935;28;20064;-53
2022/04/29 22:05:17;;;;;;;6.40;4.82;;;9.60;86.40;;;;;;5076632;28;20044;-52
2022/04/29 22:07:44;;;;;;;5.10;3.95;;;9.60;86.70;;;;;;5087726;28;20063;-55
2022/04/29 22:10:12;;;;;;;8.23;4.88;;;9.50;87.10;;;;;;5084101;28;20040;-50
2022/04/29 22:12:38;;;;;;;6.47;4.50;;;9.50;87.40;;;;;;5092071;28;20093;-51
2022/04/29 22:15:05;;;;;;;6.75;4.30;;;9.50;87.60;;;;;;5090447;28;20052;-51
2022/04/29 22:17:32;;;;;;;9.23;4.80;;;9.50;87.90;;;;;;5084250;28;20062;-50
2022/04/29 22:19:59;;;;;;;8.10;4.32;;;9.40;88.30;;;;;;5091161;28;20429;-49
2022/04/29 22:22:26;;;;;;;9.93;4.68;;;9.50;88.40;;;;;;5089969;28;20040;-52
2022/04/29 22:24:54;;;;;;;6.45;4.40;;;9.50;88.80;;;;;;5085617;28;20438;-53
2022/04/29 22:27:21;;;;;;;5.75;4.18;;;9.40;88.90;;;;;;5089478;28;20050;-53
2022/04/29 22:29:48;;;;;;;9.88;5.05;;;9.40;89.10;;;;;;5073230;28;20041;-51
2022/04/29 22:32:15;;;;;;;5.88;4.22;;;9.30;89.60;;;;;;5077553;28;20487;-51
2022/04/29 22:34:41;;;;;;;5.80;4.60;;;9.30;90.00;;;;;;5072526;28;20041;-53
2022/04/29 22:37:09;;;;;;;8.35;5.03;;;9.20;90.10;;;;;;5085328;28;20047;-50
2022/04/29 22:39:36;;;;;;;8.23;4.63;;;9.20;90.30;;;;;;5077668;28;20060;-46
2022/04/29 22:42:02;;;;;;;7.85;4.90;;;9.10;90.40;;;;;;5077426;28;20570;-53
2022/04/29 22:44:29;;;;;;;9.10;5.10;;;9.00;90.60;;;;;;5073592;28;20041;-50
2022/04/29 22:46:56;;;;;;;6.75;5.20;;;9.00;90.80;;;;;;5091359;28;20040;-49
2022/04/29 22:49:22;;;;;;;10.93;4.90;;;9.00;91.00;;;;;;5085526;28;20040;-49
2022/04/29 22:51:51;;;;;;;8.07;4.82;;;8.90;91.10;;;;;;5090554;28;20071;-51
2022/04/29 22:54:17;;;;;;;6.82;4.88;;;8.80;91.20;;;;;;5094693;28;20112;-51
2022/04/29 22:56:44;;;;;;;7.90;5.25;;;8.80;91.50;;;;;;5086418;28;20085;-56
2022/04/29 22:59:11;;;;;;;8.75;5.30;;;8.70;91.80;;;;;;5085016;28;20128;-49
2022/04/29 23:01:38;;;;;;;7.40;5.57;;;8.60;91.90;;;;;;5085130;28;20048;-48
2022/04/29 23:04:05;;;;;;;8.75;5.45;;;8.60;92.00;;;;;;5084559;28;20051;-51
2022/04/29 23:06:31;;;;;;;8.10;5.72;;;8.50;92.20;;;;;;5090199;28;20044;-50
2022/04/29 23:08:58;;;;;;;7.75;5.15;;;8.50;92.30;;;;;;5085161;28;20037;-52
2022/04/29 23:11:26;;;;;;;10.80;5.50;;;8.40;92.50;;;;;;5084263;28;20040;-53
2022/04/29 23:13:56;;;;;;;11.30;5.70;;;8.40;92.50;;;;;;5089237;28;20067;-51
2022/04/29 23:16:22;;;;;;;8.88;5.80;;;8.40;92.60;;;;;;5084078;28;20068;-49
